Time;durP1;ratioP1;P1;durP2;ratioP2;P2;SDS_P1;SDS_P2;PMS_P1;PMS_P2;Temp;Humidity;BMP_temperature;BMP_pressure;BME280_temperature;BME280_humidity;BME280_pressure;Samples;Min_cycle;Max_cycle;Signal;HPM_P1;HPM_P2
2022/11/17 07:50:33;;;;;;;8.27;5.27;;;;;;;;;;5133378;27;20267;-78
2022/11/17 07:52:59;;;;;;;5.10;2.93;;;6.60;99.90;;;;;;5135948;28;20233;-78
2022/11/17 08:21:46;;;;;;;9.23;7.20;;;7.30;99.90;;;;;;5152227;27;20265;-77
2022/11/17 08:24:12;;;;;;;8.07;5.20;;;7.90;99.90;;;;;;5121555;27;20603;-78
2022/11/17 08:26:38;;;;;;;11.10;8.47;;;8.70;99.90;;;;;;5155374;27;20682;-78
2022/11/17 08:29:03;;;;;;;6.97;3.70;;;9.50;99.90;;;;;;5153739;27;20249;-77
2022/11/17 08:31:29;;;;;;;5.07;3.40;;;10.10;99.90;;;;;;5152346;27;20235;-77
2022/11/17 08:33:55;;;;;;;7.17;4.63;;;10.50;99.90;;;;;;5152467;27;20691;-78
2022/11/17 08:36:21;;;;;;;5.60;3.93;;;10.70;99.90;;;;;;5152606;27;20186;-76
2022/11/17 08:38:46;;;;;;;4.03;2.37;;;11.00;99.90;;;;;;5152671;27;20174;-78
2022/11/17 08:41:12;;;;;;;3.73;1.73;;;11.50;99.90;;;;;;5152656;27;20190;-77
2022/11/17 08:43:38;;;;;;;5.10;2.07;;;11.80;99.90;;;;;;5152646;27;20219;-78
2022/11/17 08:46:04;;;;;;;3.87;1.47;;;12.30;99.90;;;;;;5152856;27;20667;-77
2022/11/17 08:48:30;;;;;;;1.43;1.17;;;12.50;99.90;;;;;;5152631;27;20222;-77
2022/11/17 08:50:56;;;;;;;1.17;1.00;;;12.90;99.90;;;;;;5143000;27;20171;-78
2022/11/17 08:53:22;;;;;;;1.33;1.13;;;13.30;99.90;;;;;;5143804;27;20174;-76
2022/11/17 08:55:49;;;;;;;1.33;1.00;;;13.50;99.90;;;;;;5150846;27;20559;-78
2022/11/17 08:58:15;;;;;;;1.90;1.20;;;13.60;99.90;;;;;;5148178;27;20176;-77
2022/11/17 09:00:41;;;;;;;1.37;1.27;;;13.60;99.90;;;;;;5130324;28;20191;-77
2022/11/17 09:03:08;;;;;;;1.47;1.30;;;13.60;99.90;;;;;;5132094;28;20508;-77
2022/11/17 09:05:38;;;;;;;1.40;1.30;;;13.80;99.90;;;;;;5150780;27;20202;-77
2022/11/17 09:08:04;;;;;;;2.40;1.50;;;14.00;99.90;;;;;;5152003;27;20236;-78
2022/11/17 09:10:30;;;;;;;3.53;1.50;;;14.40;99.90;;;;;;5132262;28;20542;-78
2022/11/17 09:12:56;;;;;;;1.87;1.30;;;14.80;99.90;;;;;;5141826;27;20187;-78
2022/11/17 09:15:23;;;;;;;1.30;1.20;;;14.80;99.90;;;;;;5148516;27;20210;-77
2022/11/17 09:17:49;;;;;;;1.40;1.00;;;14.60;99.90;;;;;;5142551;27;20538;-77
2022/11/17 09:20:16;;;;;;;3.30;1.20;;;14.50;99.90;;;;;;5163238;27;20280;-78
2022/11/17 09:22:42;;;;;;;3.13;1.00;;;14.00;99.90;;;;;;5155647;27;20205;-78
2022/11/17 09:25:08;;;;;;;1.10;1.00;;;13.50;99.90;;;;;;5135573;28;20198;-76
2022/11/17 09:27:34;;;;;;;1.77;1.30;;;13.70;99.90;;;;;;5130693;28;20186;-77
2022/11/17 09:30:00;;;;;;;1.10;0.90;;;14.10;99.90;;;;;;5130738;28;20282;-76
2022/11/17 09:32:26;;;;;;;1.17;1.00;;;14.10;99.90;;;;;;5120833;28;20252;-77
2022/11/17 09:34:51;;;;;;;1.80;1.20;;;13.90;99.90;;;;;;5117063;28;20192;-78
2022/11/17 09:37:17;;;;;;;1.40;1.30;;;13.50;99.90;;;;;;5115424;28;20191;-75
2022/11/17 09:39:43;;;;;;;13.23;8.53;;;13.10;99.90;;;;;;5116865;28;20602;-76
2022/11/17 09:42:13;;;;;;;1.73;1.40;;;12.80;99.90;;;;;;5116532;28;20175;-76
2022/11/17 09:44:52;;;;;;;2.03;1.37;;;12.50;99.90;;;;;;5116504;28;20669;-77
2022/11/17 09:47:33;;;;;;;2.13;1.53;;;12.10;99.90;;;;;;5116409;28;20159;-76
2022/11/17 09:49:59;;;;;;;1.47;1.10;;;11.80;99.90;;;;;;5116773;28;20200;-77
2022/11/17 09:52:56;;;;;;;2.87;1.33;;;11.60;99.90;;;;;;5122245;27;20626;-79
2022/11/17 09:55:21;;;;;;;2.27;0.80;;;11.60;99.90;;;;;;5131422;27;20204;-76
2022/11/17 09:57:52;;;;;;;3.20;0.80;;;11.70;99.90;;;;;;5135221;27;20229;-78
2022/11/17 10:00:19;;;;;;;3.00;1.73;;;12.10;99.90;;;;;;5116290;28;20641;-76
2022/11/17 10:02:46;;;;;;;3.13;1.60;;;12.40;99.90;;;;;;5116098;28;20255;-76
2022/11/17 10:05:33;;;;;;;3.33;1.87;;;12.40;99.90;;;;;;5114500;28;20305;-76
2022/11/17 10:08:07;;;;;;;5.27;2.10;;;12.30;99.90;;;;;;5114391;28;20263;-76
2022/11/17 10:10:41;;;;;;;4.43;1.47;;;12.40;99.90;;;;;;5115954;28;20205;-76
2022/11/17 10:13:18;;;;;;;1.83;1.33;;;12.30;99.90;;;;;;5117063;28;20220;-77
2022/11/17 10:15:50;;;;;;;3.23;1.73;;;12.00;99.90;;;;;;5115343;28;20195;-77
2022/11/17 10:18:16;;;;;;;3.17;1.53;;;12.00;99.90;;;;;;5116950;28;20165;-77
2022/11/17 10:20:43;;;;;;;2.23;1.00;;;11.90;99.90;;;;;;5115443;28;20247;-77
2022/11/17 10:23:13;;;;;;;2.00;1.10;;;11.90;99.90;;;;;;5117090;28;20175;-77
2022/11/17 10:25:45;;;;;;;2.60;1.07;;;12.00;99.90;;;;;;5116109;28;20211;-77
2022/11/17 10:28:31;;;;;;;2.47;1.10;;;12.00;99.90;;;;;;5116736;28;20164;-76
2022/11/17 10:31:10;;;;;;;1.83;0.87;;;12.10;99.90;;;;;;5116533;28;20294;-77
2022/11/17 10:33:42;;;;;;;2.63;0.80;;;12.00;99.90;;;;;;5114962;28;20179;-77
2022/11/17 10:36:21;;;;;;;3.93;1.00;;;12.10;99.90;;;;;;5116323;28;20270;-75
2022/11/17 10:38:57;;;;;;;3.03;0.90;;;12.10;99.90;;;;;;5116290;28;20647;-77
2022/11/17 10:41:27;;;;;;;2.10;1.40;;;12.10;99.90;;;;;;5116224;28;20159;-77
2022/11/17 10:44:24;;;;;;;2.60;1.00;;;12.00;99.90;;;;;;5114968;28;20178;-76
2022/11/17 10:46:54;;;;;;;2.73;1.00;;;12.00;99.90;;;;;;5114547;28;20566;-77
2022/11/17 10:49:33;;;;;;;1.50;0.77;;;12.00;99.90;;;;;;5115735;28;20179;-77
2022/11/17 10:52:10;;;;;;;1.27;0.90;;;12.00;99.90;;;;;;5116272;28;20164;-78
2022/11/17 10:54:36;;;;;;;1.80;0.87;;;11.90;99.90;;;;;;5115852;28;20292;-77
2022/11/17 10:57:07;;;;;;;2.00;1.03;;;11.90;99.90;;;;;;5115389;28;20203;-76
2022/11/17 10:59:49;;;;;;;2.87;0.80;;;11.70;99.90;;;;;;5115701;28;20160;-77
2022/11/17 11:02:36;;;;;;;1.70;0.70;;;11.60;99.90;;;;;;5115333;28;20183;-75
2022/11/17 11:05:16;;;;;;;1.33;0.83;;;11.50;99.90;;;;;;5116234;28;20188;-76
2022/11/17 11:07:42;;;;;;;5.03;1.00;;;11.50;99.90;;;;;;5115451;28;20167;-76
2022/11/17 11:10:22;;;;;;;0.97;0.70;;;11.40;99.90;;;;;;5115041;28;20581;-76
2022/11/17 11:12:55;;;;;;;1.20;0.80;;;11.40;99.90;;;;;;5116438;28;20617;-77
2022/11/17 11:15:23;;;;;;;1.27;0.90;;;11.30;99.90;;;;;;5115819;28;20275;-77
2022/11/17 11:17:49;;;;;;;3.63;1.10;;;11.30;99.90;;;;;;5114713;28;20175;-77
2022/11/17 11:20:18;;;;;;;2.50;1.03;;;11.40;99.90;;;;;;5116271;28;20236;-79
2022/11/17 11:23:05;;;;;;;4.53;1.80;;;11.40;99.90;;;;;;5114900;28;20186;-78
2022/11/17 11:25:40;;;;;;;9.00;1.60;;;11.30;99.90;;;;;;5118932;28;20191;-78
2022/11/17 11:28:39;;;;;;;4.10;1.87;;;11.30;99.90;;;;;;5116823;28;20637;-79
2022/11/17 11:31:20;;;;;;;2.63;1.40;;;11.50;99.90;;;;;;5117163;28;20236;-80
2022/11/17 11:34:07;;;;;;;2.93;1.00;;;11.50;99.90;;;;;;5117179;28;20159;-78
2022/11/17 11:36:43;;;;;;;5.97;1.23;;;11.60;99.90;;;;;;5116970;28;20183;-79
2022/11/17 11:39:31;;;;;;;4.07;1.23;;;11.50;99.90;;;;;;5115867;28;20178;-82
2022/11/17 11:42:00;;;;;;;3.30;1.10;;;11.40;99.90;;;;;;5116920;28;20163;-81
2022/11/17 11:44:43;;;;;;;2.67;1.23;;;11.50;99.90;;;;;;5117646;28;20178;-77
2022/11/17 11:47:30;;;;;;;7.40;2.90;;;11.40;99.90;;;;;;5116413;28;20175;-78
2022/11/17 11:50:03;;;;;;;6.20;2.80;;;11.20;99.90;;;;;;5118422;28;20252;-80
2022/11/17 11:52:36;;;;;;;6.60;1.53;;;11.20;99.90;;;;;;5118305;28;20160;-78
2022/11/17 11:55:30;;;;;;;4.00;0.90;;;11.10;99.90;;;;;;5118570;28;20197;-80
2022/11/17 11:58:10;;;;;;;4.63;2.73;;;11.20;99.90;;;;;;5118814;28;20160;-78
2022/11/17 12:00:39;;;;;;;6.87;2.20;;;11.70;99.90;;;;;;5131057;28;20171;-82
2022/11/17 12:03:47;;;;;;;6.27;3.10;;;12.10;99.90;;;;;;5131063;28;20183;-85
2022/11/17 12:06:39;;;;;;;4.33;2.40;;;12.60;99.90;;;;;;5118171;28;20191;-86
2022/11/17 12:09:31;;;;;;;6.07;3.10;;;12.70;99.90;;;;;;5115283;28;20176;-78
2022/11/17 12:12:01;;;;;;;6.70;2.93;;;12.50;99.90;;;;;;5115982;28;20558;-80
2022/11/17 12:14:37;;;;;;;8.23;5.07;;;12.20;99.90;;;;;;5115697;28;20182;-78
2022/11/17 12:17:12;;;;;;;5.87;3.70;;;12.10;99.90;;;;;;5121602;28;20167;-77
2022/11/17 12:19:46;;;;;;;16.83;7.57;;;12.10;99.90;;;;;;5132012;28;20250;-77
2022/11/17 12:22:32;;;;;;;8.97;4.73;;;12.40;99.90;;;;;;5112000;28;20195;-76
2022/11/17 12:25:23;;;;;;;13.47;7.83;;;13.30;99.90;;;;;;5103694;28;20236;-77
2022/11/17 12:27:51;;;;;;;10.07;4.83;;;13.50;99.90;;;;;;5116232;28;20219;-79
2022/11/17 12:30:32;;;;;;;9.67;5.90;;;13.60;99.90;;;;;;5114647;28;20248;-78
2022/11/17 12:33:07;;;;;;;6.10;3.37;;;13.50;99.90;;;;;;5115976;28;20172;-80
2022/11/17 12:35:38;;;;;;;7.70;2.90;;;13.10;99.90;;;;;;5115728;28;20183;-77
2022/11/17 12:38:15;;;;;;;57.33;22.93;;;12.70;99.90;;;;;;5115336;28;20259;-78
2022/11/17 12:40:48;;;;;;;11.70;5.40;;;12.50;99.90;;;;;;5116401;28;20665;-77
2022/11/17 12:43:13;;;;;;;18.83;9.43;;;12.20;99.90;;;;;;5119754;28;20183;-78
2022/11/17 12:45:54;;;;;;;15.97;8.57;;;11.90;99.90;;;;;;5117602;28;20203;-79
2022/11/17 12:48:22;;;;;;;21.93;8.43;;;11.90;99.90;;;;;;5113524;28;20549;-78
2022/11/17 12:51:13;;;;;;;48.33;19.77;;;12.10;99.90;;;;;;5115219;28;20221;-78
2022/11/17 12:54:06;;;;;;;30.40;11.63;;;12.10;99.90;;;;;;5114445;28;20653;-78
2022/11/17 12:56:52;;;;;;;7.60;3.93;;;12.30;99.90;;;;;;5113800;28;20195;-76
2022/11/17 12:59:35;;;;;;;3.20;1.77;;;12.20;99.90;;;;;;5114957;28;20152;-77
2022/11/17 13:02:52;;;;;;;5.80;2.20;;;12.20;99.90;;;;;;5114508;28;20183;-76
2022/11/17 13:05:24;;;;;;;3.13;2.13;;;12.10;99.90;;;;;;5080352;28;20681;-78
2022/11/17 13:08:12;;;;;;;5.33;3.20;;;12.00;99.90;;;;;;5116812;28;20201;-78
2022/11/17 13:10:38;;;;;;;3.53;1.60;;;12.00;99.90;;;;;;5117726;28;20690;-77
2022/11/17 13:13:20;;;;;;;6.10;2.00;;;11.90;99.90;;;;;;5117423;28;20183;-78
2022/11/17 13:15:58;;;;;;;3.67;1.03;;;11.80;99.90;;;;;;5116757;28;20199;-77
2022/11/17 13:18:42;;;;;;;4.53;2.30;;;11.70;99.90;;;;;;5118141;28;20166;-78
2022/11/17 13:21:29;;;;;;;2.53;1.00;;;11.60;99.90;;;;;;5118437;28;20672;-77
2022/11/17 13:23:56;;;;;;;3.80;2.20;;;11.50;99.90;;;;;;5132907;27;20214;-78
2022/11/17 13:26:27;;;;;;;4.90;2.30;;;11.40;99.90;;;;;;5121433;27;20207;-78
2022/11/17 13:29:07;;;;;;;2.97;1.40;;;11.40;99.90;;;;;;5118321;28;20199;-76
2022/11/17 13:31:33;;;;;;;4.37;1.83;;;11.40;99.90;;;;;;5118466;28;20640;-78
2022/11/17 13:34:02;;;;;;;4.83;1.90;;;11.40;99.90;;;;;;5118167;28;20203;-79
2022/11/17 13:36:28;;;;;;;7.10;2.53;;;11.30;99.90;;;;;;5119142;28;20252;-78
2022/11/17 13:38:59;;;;;;;6.53;3.50;;;11.30;99.90;;;;;;5126655;27;20581;-78
2022/11/17 13:41:28;;;;;;;6.30;3.53;;;11.30;99.90;;;;;;5127340;27;20163;-77
2022/11/17 13:43:55;;;;;;;8.70;3.47;;;11.20;99.90;;;;;;5117770;28;20176;-78
2022/11/17 13:46:22;;;;;;;5.30;2.60;;;11.20;99.90;;;;;;5118088;28;20187;-77
2022/11/17 13:48:49;;;;;;;4.67;2.63;;;11.10;99.90;;;;;;5116947;28;20183;-77
2022/11/17 13:51:21;;;;;;;8.93;4.90;;;11.10;99.90;;;;;;5117449;28;20649;-77
2022/11/17 13:54:00;;;;;;;7.40;2.67;;;11.10;99.90;;;;;;5116669;28;20179;-77
2022/11/17 13:56:26;;;;;;;6.20;3.37;;;;;;;;;;5117098;28;20196;-78
2022/11/17 13:58:52;;;;;;;7.43;3.13;;;11.20;99.90;;;;;;5117359;28;20179;-77
2022/11/17 14:01:24;;;;;;;10.07;5.57;;;11.30;99.90;;;;;;5117387;28;20224;-77
2022/11/17 14:03:50;;;;;;;34.13;15.47;;;11.40;99.90;;;;;;5123494;28;20176;-80
2022/11/17 14:06:16;;;;;;;14.63;8.33;;;11.40;99.90;;;;;;5121515;28;20199;-77
2022/11/17 14:09:00;;;;;;;12.57;5.70;;;11.40;99.90;;;;;;5120461;28;20237;-77
2022/11/17 14:11:26;;;;;;;16.80;8.57;;;11.30;99.90;;;;;;5120121;28;20192;-77
2022/11/17 14:13:57;;;;;;;13.53;7.37;;;11.30;99.90;;;;;;5116624;28;20275;-76
2022/11/17 14:16:40;;;;;;;40.23;18.63;;;11.30;99.90;;;;;;5115162;28;20560;-77
2022/11/17 14:19:14;;;;;;;21.97;12.07;;;11.30;99.90;;;;;;5117328;28;20271;-78
2022/11/17 14:22:17;;;;;;;13.03;3.77;;;11.20;99.90;;;;;;5118126;28;20195;-77
2022/11/17 14:24:44;;;;;;;5.60;2.77;;;11.20;99.90;;;;;;5118664;28;20548;-77
2022/11/17 14:27:33;;;;;;;3.43;1.77;;;11.30;99.90;;;;;;5117161;28;20632;-77
2022/11/17 14:29:59;;;;;;;3.00;1.27;;;11.20;99.90;;;;;;5119674;28;20263;-78
2022/11/17 14:32:25;;;;;;;2.77;1.33;;;11.30;99.90;;;;;;5119883;28;20629;-79
2022/11/17 14:34:51;;;;;;;2.37;1.17;;;11.30;99.90;;;;;;5118457;28;20190;-79
2022/11/17 14:37:16;;;;;;;1.90;1.17;;;11.30;99.90;;;;;;5118983;28;20171;-78
2022/11/17 14:39:42;;;;;;;5.63;1.33;;;11.30;99.90;;;;;;5122537;28;20522;-79
2022/11/17 14:42:10;;;;;;;3.73;1.40;;;11.20;99.90;;;;;;5126629;28;20238;-80
2022/11/17 14:44:36;;;;;;;6.07;3.23;;;11.20;99.90;;;;;;5118084;28;20282;-80
2022/11/17 14:47:02;;;;;;;4.97;3.20;;;11.20;99.90;;;;;;5120521;28;20209;-78
2022/11/17 14:49:28;;;;;;;4.10;1.50;;;11.20;99.90;;;;;;5118763;28;20202;-78
2022/11/17 14:51:55;;;;;;;6.40;2.20;;;11.20;99.90;;;;;;5132229;28;20227;-78
2022/11/17 14:54:21;;;;;;;2.70;1.50;;;11.10;99.90;;;;;;5128159;28;20228;-77
2022/11/17 14:56:47;;;;;;;5.00;2.47;;;11.10;99.90;;;;;;5117365;28;20250;-77
2022/11/17 14:59:12;;;;;;;7.23;4.20;;;11.10;99.90;;;;;;5117016;28;20250;-77
2022/11/17 15:01:38;;;;;;;8.47;5.03;;;11.10;99.90;;;;;;5117439;28;20179;-79
2022/11/17 15:04:05;;;;;;;7.93;2.70;;;11.10;99.90;;;;;;5118246;28;20176;-79
2022/11/17 15:06:31;;;;;;;5.63;2.13;;;11.00;99.90;;;;;;5118682;28;20201;-78
2022/11/17 15:09:00;;;;;;;4.40;2.30;;;11.10;99.90;;;;;;5118567;28;20178;-79
2022/11/17 15:11:28;;;;;;;4.13;1.60;;;11.00;99.90;;;;;;5119125;28;20191;-79
2022/11/17 15:13:54;;;;;;;2.73;1.70;;;11.00;99.90;;;;;;5118754;28;20187;-78
2022/11/17 15:16:20;;;;;;;1.57;1.20;;;11.00;99.90;;;;;;5117651;28;20198;-78
2022/11/17 15:18:48;;;;;;;2.90;1.37;;;11.00;99.90;;;;;;5118056;28;20160;-78
2022/11/17 15:21:15;;;;;;;1.67;1.13;;;10.90;99.90;;;;;;5117741;28;20183;-78
2022/11/17 15:23:42;;;;;;;3.77;1.10;;;10.90;99.90;;;;;;5118849;28;20172;-79
2022/11/17 15:26:14;;;;;;;3.10;1.83;;;10.90;99.90;;;;;;5118902;28;20199;-79
2022/11/17 15:28:40;;;;;;;4.70;1.87;;;10.90;99.90;;;;;;5118715;28;20616;-79
2022/11/17 15:31:15;;;;;;;3.87;1.43;;;10.80;99.90;;;;;;5119087;28;20210;-79
2022/11/17 15:33:42;;;;;;;4.47;1.93;;;10.80;99.90;;;;;;5118245;28;20512;-78
2022/11/17 15:36:11;;;;;;;3.00;1.27;;;10.70;99.90;;;;;;5119088;28;20194;-78
2022/11/17 15:38:38;;;;;;;3.90;1.70;;;10.60;99.90;;;;;;5118636;28;20167;-79
2022/11/17 15:41:04;;;;;;;6.70;2.13;;;10.60;99.90;;;;;;5118036;28;20175;-77
2022/11/17 15:43:33;;;;;;;3.13;1.27;;;10.50;99.90;;;;;;5120008;28;20201;-78
2022/11/17 15:46:11;;;;;;;5.43;2.77;;;10.40;99.90;;;;;;5120137;28;20202;-78
2022/11/17 15:48:38;;;;;;;4.30;1.60;;;10.40;99.90;;;;;;5118055;27;20159;-79
2022/11/17 15:51:06;;;;;;;9.07;1.40;;;10.30;99.90;;;;;;5117959;28;20198;-77
2022/11/17 15:53:34;;;;;;;4.97;1.70;;;10.30;99.90;;;;;;5118516;28;20168;-78
2022/11/17 15:56:10;;;;;;;4.73;1.77;;;10.20;99.90;;;;;;5118376;28;20208;-77
2022/11/17 15:58:36;;;;;;;1.97;1.40;;;10.20;99.90;;;;;;5117369;28;20164;-78
2022/11/17 16:01:35;;;;;;;4.77;2.00;;;10.10;99.90;;;;;;5117748;27;20599;-77
2022/11/17 16:04:20;;;;;;;5.27;2.10;;;10.10;99.90;;;;;;5084300;28;20190;-79
2022/11/17 16:06:46;;;;;;;5.27;2.70;;;10.10;99.90;;;;;;5116459;28;20287;-78
2022/11/17 16:09:12;;;;;;;5.67;3.17;;;10.10;99.90;;;;;;5118037;28;20177;-78
2022/11/17 16:11:39;;;;;;;6.03;3.07;;;10.00;99.90;;;;;;5117890;28;20213;-79
2022/11/17 16:14:05;;;;;;;6.77;2.67;;;10.10;99.90;;;;;;5116355;28;20171;-77
2022/11/17 16:16:34;;;;;;;5.60;1.63;;;10.00;99.90;;;;;;5115720;28;20235;-80
2022/11/17 16:19:00;;;;;;;3.27;1.60;;;10.00;99.90;;;;;;5117877;28;20173;-79
2022/11/17 16:21:26;;;;;;;15.03;10.20;;;10.00;99.90;;;;;;5117175;28;20185;-78
2022/11/17 16:23:53;;;;;;;8.23;5.43;;;10.00;99.90;;;;;;5118611;28;20250;-79
2022/11/17 16:26:20;;;;;;;7.93;4.50;;;10.00;99.90;;;;;;5118958;28;20208;-79
2022/11/17 16:28:46;;;;;;;9.37;5.13;;;10.00;99.90;;;;;;5118530;28;20262;-77
2022/11/17 16:31:23;;;;;;;8.07;4.83;;;9.90;99.90;;;;;;5119857;28;20191;-79
2022/11/17 16:33:51;;;;;;;12.90;6.03;;;9.80;99.90;;;;;;5120053;28;20161;-79
2022/11/17 16:36:18;;;;;;;10.67;5.73;;;9.70;99.90;;;;;;5120156;28;20193;-80
2022/11/17 16:38:44;;;;;;;10.67;5.00;;;9.60;99.90;;;;;;5120764;28;20166;-79
2022/11/17 16:41:10;;;;;;;6.20;4.13;;;9.40;99.90;;;;;;5119957;28;20191;-79
2022/11/17 16:43:35;;;;;;;6.23;3.80;;;9.30;99.90;;;;;;5122862;28;20178;-79
2022/11/17 16:46:18;;;;;;;4.57;3.10;;;9.20;99.90;;;;;;5122892;28;20659;-79
2022/11/17 16:48:45;;;;;;;10.33;3.10;;;9.10;99.90;;;;;;5122920;28;20167;-79
2022/11/17 16:51:11;;;;;;;11.07;3.63;;;8.90;99.90;;;;;;5122050;28;20217;-78
2022/11/17 16:53:37;;;;;;;10.77;4.43;;;8.70;99.90;;;;;;5121865;28;20192;-78
2022/11/17 16:56:07;;;;;;;7.23;3.63;;;8.60;99.90;;;;;;5122650;28;20181;-79
2022/11/17 16:58:33;;;;;;;6.80;3.10;;;8.50;99.90;;;;;;5121395;28;20579;-78
2022/11/17 17:01:08;;;;;;;3.80;2.17;;;8.40;99.90;;;;;;5122923;28;20186;-78
2022/11/17 17:03:35;;;;;;;3.00;1.77;;;8.30;99.90;;;;;;5122782;28;20595;-79
2022/11/17 17:06:09;;;;;;;5.27;1.87;;;8.30;99.90;;;;;;5122566;28;20181;-79
2022/11/17 17:08:36;;;;;;;3.53;1.53;;;8.30;99.90;;;;;;5122629;28;20753;-78
2022/11/17 17:11:03;;;;;;;4.13;1.73;;;8.30;99.90;;;;;;5120032;28;20196;-78
2022/11/17 17:13:29;;;;;;;8.37;4.27;;;8.20;99.90;;;;;;5122360;28;20169;-78
2022/11/17 17:15:55;;;;;;;9.10;5.00;;;8.10;99.90;;;;;;5120018;27;20191;-78
2022/11/17 17:18:21;;;;;;;9.00;4.43;;;8.20;99.90;;;;;;5118160;28;20168;-77
2022/11/17 17:20:50;;;;;;;8.70;5.30;;;8.20;99.90;;;;;;5119660;28;20613;-78
2022/11/17 17:23:16;;;;;;;8.57;5.43;;;8.30;99.90;;;;;;5121361;28;20647;-78
2022/11/17 17:25:42;;;;;;;16.33;5.03;;;8.30;99.90;;;;;;5120123;28;20218;-78
2022/11/17 17:28:08;;;;;;;7.13;4.83;;;;;;;;;;5121012;28;20245;-78
2022/11/17 17:30:34;;;;;;;10.73;5.87;;;;;;;;;;5121161;28;20714;-79
2022/11/17 17:33:00;;;;;;;10.47;6.57;;;;;;;;;;5119194;28;20171;-80
2022/11/17 17:35:26;;;;;;;11.27;6.00;;;;;;;;;;5120302;28;20235;-79
2022/11/17 17:37:52;;;;;;;8.43;5.17;;;;;;;;;;5121040;28;20529;-78
2022/11/17 17:40:18;;;;;;;9.30;5.17;;;8.40;99.90;;;;;;5121428;28;20654;-78
2022/11/17 17:42:43;;;;;;;10.10;5.07;;;8.30;99.90;;;;;;5120955;28;20174;-79
2022/11/17 17:45:09;;;;;;;12.10;6.23;;;8.40;99.90;;;;;;5120311;28;20621;-79
2022/11/17 17:47:35;;;;;;;7.53;4.37;;;8.40;99.90;;;;;;5120602;28;20176;-79
2022/11/17 17:50:01;;;;;;;79.07;22.90;;;8.50;99.90;;;;;;5121815;28;20294;-79
2022/11/17 17:52:27;;;;;;;212.70;54.50;;;8.40;99.90;;;;;;5120395;28;20180;-80
2022/11/17 17:54:52;;;;;;;21.93;10.57;;;8.30;99.90;;;;;;5122185;28;20229;-78
2022/11/17 17:57:18;;;;;;;26.73;12.13;;;8.30;99.90;;;;;;5119889;28;20198;-79
2022/11/17 17:59:43;;;;;;;21.77;10.17;;;8.30;99.90;;;;;;5121646;28;20195;-79
2022/11/17 18:02:09;;;;;;;13.67;7.20;;;8.30;99.90;;;;;;5126895;28;20177;-78
2022/11/17 18:04:35;;;;;;;36.53;18.27;;;8.30;99.90;;;;;;5127288;28;20193;-79
2022/11/17 18:07:02;;;;;;;47.80;22.90;;;;;;;;;;5124072;28;20169;-79
2022/11/17 18:09:27;;;;;;;37.67;19.53;;;8.30;99.90;;;;;;5120715;28;20206;-80
2022/11/17 18:11:53;;;;;;;27.80;13.73;;;8.20;99.90;;;;;;5121433;28;20283;-78
2022/11/17 18:14:22;;;;;;;15.13;9.30;;;8.20;99.90;;;;;;5121089;28;20575;-79
2022/11/17 18:16:49;;;;;;;12.57;8.60;;;8.30;99.90;;;;;;5119718;28;20254;-79
2022/11/17 18:19:15;;;;;;;18.10;10.60;;;8.30;99.90;;;;;;5119418;28;20626;-78
2022/11/17 18:21:42;;;;;;;15.23;7.97;;;8.20;99.90;;;;;;5121095;28;20194;-79
2022/11/17 18:24:10;;;;;;;11.60;6.13;;;8.30;99.90;;;;;;5120740;28;20172;-79
2022/11/17 18:26:36;;;;;;;8.27;4.67;;;;;;;;;;5121032;28;20253;-78
2022/11/17 18:29:05;;;;;;;10.73;5.47;;;8.30;99.90;;;;;;5120381;28;20183;-79
2022/11/17 18:31:33;;;;;;;8.30;4.77;;;8.30;99.90;;;;;;5121047;28;20217;-78
2022/11/17 18:34:01;;;;;;;8.70;4.77;;;8.30;99.90;;;;;;5120547;28;20176;-78
2022/11/17 18:36:28;;;;;;;10.83;4.30;;;8.30;99.90;;;;;;5120464;27;20332;-79
2022/11/17 18:38:56;;;;;;;6.10;4.00;;;;;;;;;;5120600;28;20165;-79
2022/11/17 18:41:22;;;;;;;11.13;6.63;;;8.30;99.90;;;;;;5120393;28;20164;-78
2022/11/17 18:43:48;;;;;;;5.33;3.10;;;8.30;99.90;;;;;;5119924;28;20165;-78
2022/11/17 18:46:20;;;;;;;7.67;4.07;;;8.30;99.90;;;;;;5119918;28;20244;-78
2022/11/17 18:48:48;;;;;;;4.70;3.20;;;8.30;99.90;;;;;;5119411;28;20169;-78
2022/11/17 18:51:18;;;;;;;6.70;3.30;;;8.30;99.90;;;;;;5119071;28;20220;-78
2022/11/17 18:53:44;;;;;;;8.77;3.93;;;8.30;99.90;;;;;;5120101;28;20200;-78
2022/11/17 18:56:12;;;;;;;9.67;4.80;;;8.40;99.90;;;;;;5120878;27;20557;-79
2022/11/17 18:58:38;;;;;;;12.27;6.50;;;8.40;99.90;;;;;;5120484;28;20169;-77
